sensor_id;sensor_type;location;lat;lon;timestamp;pressure;altitude;pressure_sealevel;temperature;humidity
41250;BME280;26984;59.928;30.306;2023-02-22T00:00:33;101242.72;;;-8.02;98.42
41250;BME280;26984;59.928;30.306;2023-02-22T00:03:08;101245.31;;;-7.86;98.78
41250;BME280;26984;59.928;30.306;2023-02-22T00:05:36;101250.22;;;-7.80;97.83
41250;BME280;26984;59.928;30.306;2023-02-22T00:08:05;101254.97;;;-7.71;96.96
41250;BME280;26984;59.928;30.306;2023-02-22T00:10:35;101243.41;;;-7.51;96.09
41250;BME280;26984;59.928;30.306;2023-02-22T00:13:05;101260.47;;;-7.60;94.39
41250;BME280;26984;59.928;30.306;2023-02-22T00:15:32;101255.56;;;-7.66;95.08
41250;BME280;26984;59.928;30.306;2023-02-22T00:18:00;101259.69;;;-7.62;92.65
41250;BME280;26984;59.928;30.306;2023-02-22T00:20:28;101259.63;;;-7.60;92.31
41250;BME280;26984;59.928;30.306;2023-02-22T00:22:56;101269.75;;;-7.86;92.57
41250;BME280;26984;59.928;30.306;2023-02-22T00:25:26;101276.06;;;-8.23;93.23
41250;BME280;26984;59.928;30.306;2023-02-22T00:27:55;101287.06;;;-8.34;96.03
41250;BME280;26984;59.928;30.306;2023-02-22T00:30:23;101288.19;;;-8.38;95.68
41250;BME280;26984;59.928;30.306;2023-02-22T00:32:52;101289.13;;;-8.74;96.86
41250;BME280;26984;59.928;30.306;2023-02-22T00:35:21;101291.44;;;-8.85;98.40
41250;BME280;26984;59.928;30.306;2023-02-22T00:37:52;101292.41;;;-8.87;98.97
41250;BME280;26984;59.928;30.306;2023-02-22T00:40:21;101289.56;;;-9.00;100.00
41250;BME280;26984;59.928;30.306;2023-02-22T00:42:49;101299.53;;;-9.08;100.00
41250;BME280;26984;59.928;30.306;2023-02-22T00:45:18;101295.53;;;-9.16;100.00
41250;BME280;26984;59.928;30.306;2023-02-22T00:47:46;101307.13;;;-9.40;100.00
41250;BME280;26984;59.928;30.306;2023-02-22T00:50:14;101300.78;;;-9.53;100.00
41250;BME280;26984;59.928;30.306;2023-02-22T00:52:42;101312.16;;;-9.73;100.00
41250;BME280;26984;59.928;30.306;2023-02-22T00:55:13;101321.66;;;-9.72;100.00
41250;BME280;26984;59.928;30.306;2023-02-22T00:57:41;101312.41;;;-9.79;100.00
41250;BME280;26984;59.928;30.306;2023-02-22T01:00:14;101326.38;;;-9.80;100.00
41250;BME280;26984;59.928;30.306;2023-02-22T01:02:43;101330.22;;;-9.89;100.00
41250;BME280;26984;59.928;30.306;2023-02-22T01:05:13;101330.06;;;-10.05;100.00
41250;BME280;26984;59.928;30.306;2023-02-22T01:07:41;101331.06;;;-10.07;100.00
41250;BME280;26984;59.928;30.306;2023-02-22T01:10:09;101332.19;;;-10.13;100.00
41250;BME280;26984;59.928;30.306;2023-02-22T01:12:37;101331.03;;;-10.26;100.00
41250;BME280;26984;59.928;30.306;2023-02-22T01:15:05;101339.78;;;-10.08;100.00
41250;BME280;26984;59.928;30.306;2023-02-22T01:17:35;101338.59;;;-10.01;100.00
41250;BME280;26984;59.928;30.306;2023-02-22T01:20:05;101340.13;;;-9.96;100.00
41250;BME280;26984;59.928;30.306;2023-02-22T01:22:35;101337.44;;;-9.75;100.00
41250;BME280;26984;59.928;30.306;2023-02-22T01:25:03;101334.31;;;-10.02;100.00
41250;BME280;26984;59.928;30.306;2023-02-22T01:27:32;101352.81;;;-9.88;100.00
41250;BME280;26984;59.928;30.306;2023-02-22T01:29:59;101346.09;;;-9.75;100.00
41250;BME280;26984;59.928;30.306;2023-02-22T01:32:30;101345.22;;;-9.74;100.00
41250;BME280;26984;59.928;30.306;2023-02-22T01:34:58;101346.19;;;-9.57;100.00
41250;BME280;26984;59.928;30.306;2023-02-22T01:37:27;101353.31;;;-9.61;100.00
41250;BME280;26984;59.928;30.306;2023-02-22T01:39:55;101361.00;;;-9.58;100.00
41250;BME280;26984;59.928;30.306;2023-02-22T01:42:22;101352.91;;;-9.52;100.00
41250;BME280;26984;59.928;30.306;2023-02-22T01:47:32;101355.78;;;-9.20;100.00
41250;BME280;26984;59.928;30.306;2023-02-22T01:50:00;101363.84;;;-9.25;100.00
41250;BME280;26984;59.928;30.306;2023-02-22T01:52:29;101368.06;;;-9.41;100.00
41250;BME280;26984;59.928;30.306;2023-02-22T01:54:56;101370.66;;;-9.41;100.00
41250;BME280;26984;59.928;30.306;2023-02-22T01:57:25;101373.72;;;-9.31;100.00
41250;BME280;26984;59.928;30.306;2023-02-22T01:59:56;101370.59;;;-9.21;100.00
41250;BME280;26984;59.928;30.306;2023-02-22T02:02:25;101363.94;;;-9.09;100.00
41250;BME280;26984;59.928;30.306;2023-02-22T02:04:53;101363.66;;;-9.03;100.00
41250;BME280;26984;59.928;30.306;2023-02-22T02:07:22;101366.66;;;-8.93;100.00
41250;BME280;26984;59.928;30.306;2023-02-22T02:09:55;101372.94;;;-8.61;100.00
41250;BME280;26984;59.928;30.306;2023-02-22T02:12:24;101374.25;;;-8.70;100.00
41250;BME280;26984;59.928;30.306;2023-02-22T02:14:52;101371.47;;;-8.84;100.00
41250;BME280;26984;59.928;30.306;2023-02-22T02:17:20;101374.78;;;-8.80;100.00
41250;BME280;26984;59.928;30.306;2023-02-22T02:19:50;101375.78;;;-8.65;100.00
41250;BME280;26984;59.928;30.306;2023-02-22T02:22:22;101377.00;;;-8.73;100.00
41250;BME280;26984;59.928;30.306;2023-02-22T02:27:58;101391.97;;;-8.76;100.00
41250;BME280;26984;59.928;30.306;2023-02-22T02:30:37;101397.66;;;-9.04;100.00
41250;BME280;26984;59.928;30.306;2023-02-22T02:33:11;101404.03;;;-9.10;100.00
41250;BME280;26984;59.928;30.306;2023-02-22T02:35:46;101405.25;;;-9.17;100.00
41250;BME280;26984;59.928;30.306;2023-02-22T02:38:17;101405.44;;;-9.22;100.00
41250;BME280;26984;59.928;30.306;2023-02-22T02:40:50;101406.94;;;-9.35;100.00
41250;BME280;26984;59.928;30.306;2023-02-22T02:43:20;101416.56;;;-9.37;100.00
41250;BME280;26984;59.928;30.306;2023-02-22T02:45:52;101417.38;;;-9.35;100.00
41250;BME280;26984;59.928;30.306;2023-02-22T02:48:22;101422.50;;;-9.33;100.00
41250;BME280;26984;59.928;30.306;2023-02-22T02:50:52;101420.06;;;-9.57;100.00
41250;BME280;26984;59.928;30.306;2023-02-22T02:53:21;101430.19;;;-9.49;100.00
41250;BME280;26984;59.928;30.306;2023-02-22T02:55:51;101423.50;;;-9.75;100.00
41250;BME280;26984;59.928;30.306;2023-02-22T02:58:20;101425.91;;;-9.71;100.00
41250;BME280;26984;59.928;30.306;2023-02-22T03:00:49;101431.44;;;-9.78;100.00
41250;BME280;26984;59.928;30.306;2023-02-22T03:06:09;101432.88;;;-9.71;100.00
41250;BME280;26984;59.928;30.306;2023-02-22T03:08:40;101439.59;;;-9.86;100.00
41250;BME280;26984;59.928;30.306;2023-02-22T03:11:09;101441.63;;;-9.93;100.00
41250;BME280;26984;59.928;30.306;2023-02-22T03:13:44;101447.69;;;-10.13;100.00
41250;BME280;26984;59.928;30.306;2023-02-22T03:16:14;101452.78;;;-10.09;100.00
41250;BME280;26984;59.928;30.306;2023-02-22T03:18:48;101448.94;;;-10.01;100.00
41250;BME280;26984;59.928;30.306;2023-02-22T03:21:21;101462.03;;;-10.02;100.00
41250;BME280;26984;59.928;30.306;2023-02-22T03:23:55;101464.81;;;-10.07;100.00
41250;BME280;26984;59.928;30.306;2023-02-22T03:26:28;101464.97;;;-10.10;100.00
41250;BME280;26984;59.928;30.306;2023-02-22T03:28:59;101461.13;;;-10.01;100.00
41250;BME280;26984;59.928;30.306;2023-02-22T03:31:31;101469.06;;;-10.04;100.00
41250;BME280;26984;59.928;30.306;2023-02-22T03:34:04;101472.34;;;-10.21;100.00
41250;BME280;26984;59.928;30.306;2023-02-22T03:36:34;101480.47;;;-10.27;100.00
41250;BME280;26984;59.928;30.306;2023-02-22T03:39:04;101474.84;;;-10.18;100.00
41250;BME280;26984;59.928;30.306;2023-02-22T03:41:33;101480.63;;;-10.32;100.00
41250;BME280;26984;59.928;30.306;2023-02-22T03:44:05;101471.75;;;-10.26;100.00
41250;BME280;26984;59.928;30.306;2023-02-22T03:46:35;101477.38;;;-10.37;100.00
41250;BME280;26984;59.928;30.306;2023-02-22T03:49:08;101479.06;;;-10.36;100.00
41250;BME280;26984;59.928;30.306;2023-02-22T03:51:41;101478.34;;;-10.40;100.00
41250;BME280;26984;59.928;30.306;2023-02-22T03:54:08;101478.28;;;-10.18;100.00
41250;BME280;26984;59.928;30.306;2023-02-22T03:56:42;101484.81;;;-10.07;100.00
41250;BME280;26984;59.928;30.306;2023-02-22T03:59:13;101484.22;;;-10.14;100.00
41250;BME280;26984;59.928;30.306;2023-02-22T04:01:40;101483.13;;;-10.08;100.00
41250;BME280;26984;59.928;30.306;2023-02-22T04:04:08;101493.84;;;-9.94;100.00
41250;BME280;26984;59.928;30.306;2023-02-22T04:06:37;101492.53;;;-10.04;100.00
41250;BME280;26984;59.928;30.306;2023-02-22T04:09:06;101496.53;;;-9.96;100.00
41250;BME280;26984;59.928;30.306;2023-02-22T04:11:34;101495.38;;;-10.10;100.00
41250;BME280;26984;59.928;30.306;2023-02-22T04:14:01;101498.53;;;-10.02;100.00
41250;BME280;26984;59.928;30.306;2023-02-22T04:16:29;101491.09;;;-9.91;100.00
41250;BME280;26984;59.928;30.306;2023-02-22T04:18:56;101501.84;;;-9.99;100.00
41250;BME280;26984;59.928;30.306;2023-02-22T04:21:24;101503.94;;;-9.86;100.00
41250;BME280;26984;59.928;30.306;2023-02-22T04:23:51;101504.25;;;-9.94;100.00
41250;BME280;26984;59.928;30.306;2023-02-22T04:26:21;101499.53;;;-9.84;100.00
41250;BME280;26984;59.928;30.306;2023-02-22T04:28:52;101495.66;;;-9.76;100.00
41250;BME280;26984;59.928;30.306;2023-02-22T04:31:23;101506.47;;;-9.65;100.00
41250;BME280;26984;59.928;30.306;2023-02-22T04:33:52;101512.41;;;-9.61;100.00
41250;BME280;26984;59.928;30.306;2023-02-22T04:36:24;101513.66;;;-9.49;100.00
41250;BME280;26984;59.928;30.306;2023-02-22T04:38:52;101507.91;;;-9.57;100.00
41250;BME280;26984;59.928;30.306;2023-02-22T04:41:21;101511.69;;;-9.44;100.00
41250;BME280;26984;59.928;30.306;2023-02-22T04:43:50;101517.81;;;-9.25;100.00
41250;BME280;26984;59.928;30.306;2023-02-22T04:46:20;101525.34;;;-9.19;100.00
41250;BME280;26984;59.928;30.306;2023-02-22T04:48:48;101516.06;;;-9.24;100.00
41250;BME280;26984;59.928;30.306;2023-02-22T04:51:19;101520.47;;;-9.26;100.00
41250;BME280;26984;59.928;30.306;2023-02-22T04:54:07;101521.19;;;-9.23;100.00
41250;BME280;26984;59.928;30.306;2023-02-22T04:56:38;101530.22;;;-9.30;100.00
41250;BME280;26984;59.928;30.306;2023-02-22T04:59:06;101520.22;;;-9.20;100.00
41250;BME280;26984;59.928;30.306;2023-02-22T05:01:33;101531.50;;;-9.20;100.00
41250;BME280;26984;59.928;30.306;2023-02-22T05:04:02;101531.94;;;-9.10;100.00
41250;BME280;26984;59.928;30.306;2023-02-22T05:06:30;101540.63;;;-8.90;100.00
41250;BME280;26984;59.928;30.306;2023-02-22T05:08:57;101541.44;;;-8.88;100.00
41250;BME280;26984;59.928;30.306;2023-02-22T05:11:25;101542.44;;;-9.11;100.00
41250;BME280;26984;59.928;30.306;2023-02-22T05:13:53;101554.19;;;-9.22;100.00
41250;BME280;26984;59.928;30.306;2023-02-22T05:16:21;101555.66;;;-9.55;100.00
41250;BME280;26984;59.928;30.306;2023-02-22T05:18:48;101553.44;;;-9.65;100.00
41250;BME280;26984;59.928;30.306;2023-02-22T05:21:16;101562.38;;;-9.70;100.00
41250;BME280;26984;59.928;30.306;2023-02-22T05:23:44;101560.09;;;-9.78;100.00
41250;BME280;26984;59.928;30.306;2023-02-22T05:26:11;101563.91;;;-9.86;100.00
41250;BME280;26984;59.928;30.306;2023-02-22T05:28:38;101574.84;;;-9.99;100.00
41250;BME280;26984;59.928;30.306;2023-02-22T05:31:07;101577.63;;;-10.03;100.00
41250;BME280;26984;59.928;30.306;2023-02-22T05:33:35;101578.41;;;-10.01;100.00
41250;BME280;26984;59.928;30.306;2023-02-22T05:36:04;101579.16;;;-10.20;100.00
41250;BME280;26984;59.928;30.306;2023-02-22T05:38:33;101583.53;;;-10.20;100.00
41250;BME280;26984;59.928;30.306;2023-02-22T05:41:00;101578.91;;;-10.14;100.00
41250;BME280;26984;59.928;30.306;2023-02-22T05:43:28;101583.22;;;-10.13;100.00
41250;BME280;26984;59.928;30.306;2023-02-22T05:45:55;101586.59;;;-10.10;100.00
41250;BME280;26984;59.928;30.306;2023-02-22T05:48:24;101587.63;;;-10.15;100.00
41250;BME280;26984;59.928;30.306;2023-02-22T05:50:52;101583.03;;;-10.08;100.00
41250;BME280;26984;59.928;30.306;2023-02-22T05:53:20;101585.59;;;-10.06;100.00
41250;BME280;26984;59.928;30.306;2023-02-22T05:55:48;101577.91;;;-10.11;100.00
41250;BME280;26984;59.928;30.306;2023-02-22T05:58:16;101595.13;;;-10.07;100.00
41250;BME280;26984;59.928;30.306;2023-02-22T06:00:44;101586.72;;;-10.14;100.00
41250;BME280;26984;59.928;30.306;2023-02-22T06:03:11;101599.03;;;-9.95;100.00
41250;BME280;26984;59.928;30.306;2023-02-22T06:05:41;101594.84;;;-9.99;100.00
41250;BME280;26984;59.928;30.306;2023-02-22T06:08:09;101603.25;;;-9.93;100.00
41250;BME280;26984;59.928;30.306;2023-02-22T06:10:36;101597.78;;;-9.86;100.00
41250;BME280;26984;59.928;30.306;2023-02-22T06:13:04;101601.25;;;-9.86;100.00
41250;BME280;26984;59.928;30.306;2023-02-22T06:15:32;101613.22;;;-9.80;100.00
41250;BME280;26984;59.928;30.306;2023-02-22T06:17:59;101607.75;;;-9.96;100.00
41250;BME280;26984;59.928;30.306;2023-02-22T06:20:27;101613.03;;;-9.98;100.00
41250;BME280;26984;59.928;30.306;2023-02-22T06:22:57;101613.97;;;-9.78;100.00
41250;BME280;26984;59.928;30.306;2023-02-22T06:25:25;101611.84;;;-9.69;100.00
41250;BME280;26984;59.928;30.306;2023-02-22T06:27:53;101615.09;;;-9.84;100.00
41250;BME280;26984;59.928;30.306;2023-02-22T06:30:21;101616.31;;;-9.71;100.00
41250;BME280;26984;59.928;30.306;2023-02-22T06:32:48;101622.16;;;-9.66;100.00
41250;BME280;26984;59.928;30.306;2023-02-22T06:35:16;101621.75;;;-9.77;100.00
41250;BME280;26984;59.928;30.306;2023-02-22T06:37:44;101629.16;;;-9.88;100.00
41250;BME280;26984;59.928;30.306;2023-02-22T06:40:13;101622.72;;;-9.79;100.00
41250;BME280;26984;59.928;30.306;2023-02-22T06:42:41;101632.19;;;-9.99;100.00
41250;BME280;26984;59.928;30.306;2023-02-22T06:45:09;101637.28;;;-9.96;100.00
41250;BME280;26984;59.928;30.306;2023-02-22T06:47:37;101636.72;;;-9.82;100.00
41250;BME280;26984;59.928;30.306;2023-02-22T06:50:07;101640.47;;;-9.89;100.00
41250;BME280;26984;59.928;30.306;2023-02-22T06:52:35;101641.16;;;-9.84;100.00
41250;BME280;26984;59.928;30.306;2023-02-22T06:55:09;101645.53;;;-9.84;100.00
41250;BME280;26984;59.928;30.306;2023-02-22T06:57:38;101641.88;;;-9.80;100.00
41250;BME280;26984;59.928;30.306;2023-02-22T07:00:06;101651.94;;;-9.71;100.00
41250;BME280;26984;59.928;30.306;2023-02-22T07:02:34;101652.13;;;-9.76;100.00
41250;BME280;26984;59.928;30.306;2023-02-22T07:05:02;101644.22;;;-9.52;100.00
41250;BME280;26984;59.928;30.306;2023-02-22T07:07:29;101653.63;;;-9.48;100.00
41250;BME280;26984;59.928;30.306;2023-02-22T07:09:57;101653.38;;;-9.64;100.00
41250;BME280;26984;59.928;30.306;2023-02-22T07:12:24;101656.19;;;-9.69;100.00
41250;BME280;26984;59.928;30.306;2023-02-22T07:14:55;101665.66;;;-9.66;100.00
41250;BME280;26984;59.928;30.306;2023-02-22T07:17:22;101660.78;;;-9.53;100.00
41250;BME280;26984;59.928;30.306;2023-02-22T07:19:50;101658.59;;;-9.42;100.00
41250;BME280;26984;59.928;30.306;2023-02-22T07:22:17;101665.34;;;-9.58;99.78
41250;BME280;26984;59.928;30.306;2023-02-22T07:24:45;101670.16;;;-9.70;100.00
41250;BME280;26984;59.928;30.306;2023-02-22T07:27:12;101674.75;;;-9.54;100.00
41250;BME280;26984;59.928;30.306;2023-02-22T07:29:41;101676.06;;;-9.44;100.00
41250;BME280;26984;59.928;30.306;2023-02-22T07:32:10;101683.81;;;-9.43;99.48
41250;BME280;26984;59.928;30.306;2023-02-22T07:34:37;101679.03;;;-9.53;100.00
41250;BME280;26984;59.928;30.306;2023-02-22T07:37:05;101686.81;;;-9.52;100.00
41250;BME280;26984;59.928;30.306;2023-02-22T07:39:32;101687.22;;;-9.41;100.00
41250;BME280;26984;59.928;30.306;2023-02-22T07:42:00;101689.41;;;-9.30;100.00
41250;BME280;26984;59.928;30.306;2023-02-22T07:44:28;101692.53;;;-9.22;100.00
41250;BME280;26984;59.928;30.306;2023-02-22T07:46:56;101690.78;;;-9.21;100.00
41250;BME280;26984;59.928;30.306;2023-02-22T07:49:25;101690.16;;;-9.06;100.00
41250;BME280;26984;59.928;30.306;2023-02-22T07:51:55;101690.78;;;-9.01;98.81
41250;BME280;26984;59.928;30.306;2023-02-22T07:54:23;101695.75;;;-8.95;99.55
41250;BME280;26984;59.928;30.306;2023-02-22T07:56:50;101702.03;;;-8.99;97.52
41250;BME280;26984;59.928;30.306;2023-02-22T07:59:18;101704.97;;;-9.06;98.21
41250;BME280;26984;59.928;30.306;2023-02-22T08:01:47;101706.19;;;-8.95;98.04
41250;BME280;26984;59.928;30.306;2023-02-22T08:04:15;101700.78;;;-8.90;98.55
41250;BME280;26984;59.928;30.306;2023-02-22T08:06:44;101707.44;;;-8.83;97.86
41250;BME280;26984;59.928;30.306;2023-02-22T08:09:12;101712.22;;;-8.93;97.20
41250;BME280;26984;59.928;30.306;2023-02-22T08:11:39;101721.63;;;-8.88;98.24
41250;BME280;26984;59.928;30.306;2023-02-22T08:14:07;101719.34;;;-8.96;96.89
41250;BME280;26984;59.928;30.306;2023-02-22T08:16:35;101715.69;;;-8.92;97.28
41250;BME280;26984;59.928;30.306;2023-02-22T08:19:05;101731.94;;;-8.85;96.82
41250;BME280;26984;59.928;30.306;2023-02-22T08:21:33;101726.31;;;-8.76;97.81
41250;BME280;26984;59.928;30.306;2023-02-22T08:24:02;101722.00;;;-8.57;96.97
41250;BME280;26984;59.928;30.306;2023-02-22T08:26:29;101729.63;;;-8.52;97.31
41250;BME280;26984;59.928;30.306;2023-02-22T08:28:57;101731.66;;;-8.38;95.65
41250;BME280;26984;59.928;30.306;2023-02-22T08:31:24;101732.56;;;-8.21;96.07
41250;BME280;26984;59.928;30.306;2023-02-22T08:33:52;101732.84;;;-8.08;94.53
41250;BME280;26984;59.928;30.306;2023-02-22T08:36:19;101733.63;;;-8.06;93.27
41250;BME280;26984;59.928;30.306;2023-02-22T08:38:47;101736.31;;;-8.07;93.03
41250;BME280;26984;59.928;30.306;2023-02-22T08:41:16;101738.94;;;-8.07;93.00
41250;BME280;26984;59.928;30.306;2023-02-22T08:43:43;101743.09;;;-8.03;94.54
41250;BME280;26984;59.928;30.306;2023-02-22T08:46:10;101734.63;;;-7.89;93.24
41250;BME280;26984;59.928;30.306;2023-02-22T08:48:38;101736.09;;;-7.84;93.22
41250;BME280;26984;59.928;30.306;2023-02-22T08:51:05;101742.53;;;-7.72;92.43
41250;BME280;26984;59.928;30.306;2023-02-22T08:53:34;101744.94;;;-7.67;91.61
41250;BME280;26984;59.928;30.306;2023-02-22T08:56:02;101740.47;;;-7.65;91.00
41250;BME280;26984;59.928;30.306;2023-02-22T08:58:31;101741.25;;;-7.63;92.15
41250;BME280;26984;59.928;30.306;2023-02-22T09:00:59;101744.13;;;-7.51;91.21
41250;BME280;26984;59.928;30.306;2023-02-22T09:03:27;101735.94;;;-7.43;90.86
41250;BME280;26984;59.928;30.306;2023-02-22T09:05:55;101734.19;;;-7.25;90.67
41250;BME280;26984;59.928;30.306;2023-02-22T09:08:24;101737.03;;;-7.12;87.37
41250;BME280;26984;59.928;30.306;2023-02-22T09:10:52;101735.97;;;-7.08;86.42
41250;BME280;26984;59.928;30.306;2023-02-22T09:13:19;101746.38;;;-7.07;83.81
41250;BME280;26984;59.928;30.306;2023-02-22T09:15:48;101745.91;;;-7.15;84.08
41250;BME280;26984;59.928;30.306;2023-02-22T09:18:16;101750.09;;;-7.30;83.69
41250;BME280;26984;59.928;30.306;2023-02-22T09:20:43;101757.81;;;-7.27;83.19
41250;BME280;26984;59.928;30.306;2023-02-22T09:23:12;101765.75;;;-7.28;83.47
41250;BME280;26984;59.928;30.306;2023-02-22T09:25:43;101762.22;;;-7.27;83.10
41250;BME280;26984;59.928;30.306;2023-02-22T09:28:10;101761.69;;;-7.16;82.47
41250;BME280;26984;59.928;30.306;2023-02-22T09:30:38;101771.88;;;-7.10;82.38
41250;BME280;26984;59.928;30.306;2023-02-22T09:33:08;101771.50;;;-7.39;81.00
41250;BME280;26984;59.928;30.306;2023-02-22T09:35:37;101782.41;;;-7.67;81.57
41250;BME280;26984;59.928;30.306;2023-02-22T09:38:08;101775.34;;;-8.03;83.60
41250;BME280;26984;59.928;30.306;2023-02-22T09:40:37;101781.88;;;-8.13;86.19
41250;BME280;26984;59.928;30.306;2023-02-22T09:43:13;101781.56;;;-8.26;86.78
41250;BME280;26984;59.928;30.306;2023-02-22T09:45:46;101777.34;;;-8.28;87.85
41250;BME280;26984;59.928;30.306;2023-02-22T09:48:22;101781.75;;;-8.10;88.35
41250;BME280;26984;59.928;30.306;2023-02-22T09:50:50;101780.28;;;-7.97;89.22
41250;BME280;26984;59.928;30.306;2023-02-22T09:53:24;101788.56;;;-7.87;88.87
41250;BME280;26984;59.928;30.306;2023-02-22T09:55:55;101782.97;;;-7.79;88.74
41250;BME280;26984;59.928;30.306;2023-02-22T09:58:26;101790.75;;;-7.59;88.64
41250;BME280;26984;59.928;30.306;2023-02-22T10:01:10;101788.34;;;-7.44;87.78
41250;BME280;26984;59.928;30.306;2023-02-22T10:03:52;101789.38;;;-7.30;88.22
41250;BME280;26984;59.928;30.306;2023-02-22T10:06:27;101792.88;;;-7.12;87.40
41250;BME280;26984;59.928;30.306;2023-02-22T10:08:57;101789.69;;;-7.00;86.58
41250;BME280;26984;59.928;30.306;2023-02-22T10:11:29;101786.84;;;-6.78;86.73
41250;BME280;26984;59.928;30.306;2023-02-22T10:14:01;101785.31;;;-6.47;86.95
41250;BME280;26984;59.928;30.306;2023-02-22T10:16:33;101791.81;;;-6.21;84.53
41250;BME280;26984;59.928;30.306;2023-02-22T10:19:15;101794.09;;;-5.97;83.58
41250;BME280;26984;59.928;30.306;2023-02-22T10:21:47;101796.38;;;-5.75;81.95
41250;BME280;26984;59.928;30.306;2023-02-22T10:24:24;101795.53;;;-5.60;82.24
41250;BME280;26984;59.928;30.306;2023-02-22T10:26:56;101807.16;;;-5.33;83.32
41250;BME280;26984;59.928;30.306;2023-02-22T10:29:29;101802.56;;;-5.13;81.79
41250;BME280;26984;59.928;30.306;2023-02-22T10:31:59;101802.22;;;-5.07;80.79
41250;BME280;26984;59.928;30.306;2023-02-22T10:34:31;101807.31;;;-5.04;81.05
41250;BME280;26984;59.928;30.306;2023-02-22T10:37:03;101801.47;;;-5.09;81.39
41250;BME280;26984;59.928;30.306;2023-02-22T10:39:32;101800.00;;;-4.83;81.70
41250;BME280;26984;59.928;30.306;2023-02-22T10:42:02;101809.88;;;-4.72;79.01
41250;BME280;26984;59.928;30.306;2023-02-22T10:44:31;101807.25;;;-4.72;79.94
41250;BME280;26984;59.928;30.306;2023-02-22T10:46:59;101802.97;;;-4.59;79.92
41250;BME280;26984;59.928;30.306;2023-02-22T10:49:32;101807.50;;;-4.47;77.80
41250;BME280;26984;59.928;30.306;2023-02-22T10:52:03;101809.97;;;-4.44;79.21
41250;BME280;26984;59.928;30.306;2023-02-22T10:54:38;101803.31;;;-4.35;76.84
41250;BME280;26984;59.928;30.306;2023-02-22T10:57:06;101806.59;;;-4.31;76.45
41250;BME280;26984;59.928;30.306;2023-02-22T10:59:34;101810.25;;;-4.20;75.81
41250;BME280;26984;59.928;30.306;2023-02-22T11:02:07;101811.22;;;-4.06;72.50
41250;BME280;26984;59.928;30.306;2023-02-22T11:04:45;101802.31;;;-4.18;71.02
41250;BME280;26984;59.928;30.306;2023-02-22T11:07:18;101816.31;;;-4.62;71.70
41250;BME280;26984;59.928;30.306;2023-02-22T11:09:48;101806.75;;;-4.79;72.29
41250;BME280;26984;59.928;30.306;2023-02-22T11:12:17;101811.56;;;-5.01;73.44
41250;BME280;26984;59.928;30.306;2023-02-22T11:14:45;101815.13;;;-5.34;75.09
41250;BME280;26984;59.928;30.306;2023-02-22T11:17:15;101814.19;;;-5.49;75.71
41250;BME280;26984;59.928;30.306;2023-02-22T11:19:46;101820.13;;;-5.61;77.20
41250;BME280;26984;59.928;30.306;2023-02-22T11:22:19;101825.41;;;-5.79;78.08
41250;BME280;26984;59.928;30.306;2023-02-22T11:24:47;101812.25;;;-6.10;79.35
41250;BME280;26984;59.928;30.306;2023-02-22T11:27:27;101820.78;;;-6.22;80.84
41250;BME280;26984;59.928;30.306;2023-02-22T11:29:57;101817.81;;;-6.16;81.17
41250;BME280;26984;59.928;30.306;2023-02-22T11:32:32;101826.53;;;-6.16;81.03
41250;BME280;26984;59.928;30.306;2023-02-22T11:37:45;101822.75;;;-6.10;82.47
41250;BME280;26984;59.928;30.306;2023-02-22T11:40:14;101830.78;;;-6.13;82.15
41250;BME280;26984;59.928;30.306;2023-02-22T11:42:44;101826.47;;;-6.32;82.29
41250;BME280;26984;59.928;30.306;2023-02-22T11:45:13;101829.50;;;-6.39;82.77
41250;BME280;26984;59.928;30.306;2023-02-22T11:47:52;101823.84;;;-6.49;83.32
41250;BME280;26984;59.928;30.306;2023-02-22T11:50:22;101836.28;;;-6.35;84.03
41250;BME280;26984;59.928;30.306;2023-02-22T11:52:56;101834.94;;;-6.44;84.53
41250;BME280;26984;59.928;30.306;2023-02-22T11:55:28;101835.72;;;-6.42;84.77
41250;BME280;26984;59.928;30.306;2023-02-22T11:58:00;101843.44;;;-6.39;85.65
41250;BME280;26984;59.928;30.306;2023-02-22T12:00:36;101847.84;;;-6.57;84.24
41250;BME280;26984;59.928;30.306;2023-02-22T12:03:25;101851.06;;;-6.86;85.60
41250;BME280;26984;59.928;30.306;2023-02-22T12:05:57;101851.25;;;-6.91;87.39
41250;BME280;26984;59.928;30.306;2023-02-22T12:08:38;101855.78;;;-6.94;88.65
41250;BME280;26984;59.928;30.306;2023-02-22T12:11:11;101853.25;;;-6.96;89.56
41250;BME280;26984;59.928;30.306;2023-02-22T12:16:33;101853.97;;;-6.92;89.88
41250;BME280;26984;59.928;30.306;2023-02-22T12:19:08;101862.81;;;-6.95;89.70
41250;BME280;26984;59.928;30.306;2023-02-22T12:21:39;101863.59;;;-6.93;88.87
41250;BME280;26984;59.928;30.306;2023-02-22T12:24:09;101867.91;;;-6.92;89.72
41250;BME280;26984;59.928;30.306;2023-02-22T12:26:41;101863.44;;;-6.90;90.97
41250;BME280;26984;59.928;30.306;2023-02-22T12:29:13;101861.47;;;-6.67;91.21
41250;BME280;26984;59.928;30.306;2023-02-22T12:31:43;101865.94;;;-6.69;88.85
41250;BME280;26984;59.928;30.306;2023-02-22T12:34:14;101869.88;;;-6.61;88.55
41250;BME280;26984;59.928;30.306;2023-02-22T12:36:47;101870.56;;;-6.75;88.12
41250;BME280;26984;59.928;30.306;2023-02-22T12:39:26;101867.19;;;-6.95;89.78
41250;BME280;26984;59.928;30.306;2023-02-22T12:41:59;101874.13;;;-6.94;90.29
41250;BME280;26984;59.928;30.306;2023-02-22T12:44:29;101872.91;;;-6.87;91.11
41250;BME280;26984;59.928;30.306;2023-02-22T12:46:57;101871.50;;;-6.76;89.58
41250;BME280;26984;59.928;30.306;2023-02-22T12:49:28;101873.94;;;-6.72;89.99
41250;BME280;26984;59.928;30.306;2023-02-22T12:51:58;101881.88;;;-6.74;89.91
41250;BME280;26984;59.928;30.306;2023-02-22T12:54:31;101882.59;;;-6.70;90.24
41250;BME280;26984;59.928;30.306;2023-02-22T12:57:04;101880.53;;;-6.64;89.97
41250;BME280;26984;59.928;30.306;2023-02-22T12:59:36;101882.22;;;-6.45;89.07